Date,TemperatureHighF,TemperatureAvgF,TemperatureLowF,DewpointHighF,DewpointAvgF,DewpointLowF,HumidityHigh,HumidityAvg,HumidityLow,PressureMaxIn,PressureMinIn,WindSpeedMaxMPH,WindSpeedAvgMPH,GustSpeedMaxMPH,PrecipitationSumIn
2013-3-1,78,57,45,54,47,42,90,72,39,30.42,30.23,0,0,0,0.00
2013-3-2,70,57,48,53,48,43,88,73,53,30.24,30.05,0,0,0,0.00
2013-3-3,68,54,46,51,46,42,88,77,52,30.08,30.01,0,0,0,0.00
2013-3-4,58,47,37,47,42,33,90,83,64,30.14,30.05,0,0,0,0.00
2013-3-5,53,46,35,45,40,32,90,81,69,30.07,29.78,0,0,0,0.24
2013-3-6,56,48,38,46,40,34,90,77,54,30.06,29.79,0,0,0,0.08
2013-3-7,56,46,36,42,37,33,90,73,50,29.99,29.87,0,0,0,0.00
2013-3-8,68,51,38,41,37,33,83,63,34,30.03,29.84,0,0,0,0.00
2013-3-9,75,53,39,46,39,34,85,62,28,30.31,30.03,0,0,0,0.00
2013-3-10,73,54,40,47,40,34,82,62,33,30.33,30.23,0,0,0,0.00
2013-3-11,76,53,38,49,42,35,89,68,34,30.25,30.10,0,0,0,0.00
2013-3-12,77,55,41,55,46,38,90,72,41,30.15,30.07,0,0,0,0.00
2013-3-13,83,59,42,58,48,39,92,70,36,30.16,30.06,0,0,0,0.00
2013-3-14,72,56,45,56,48,42,92,74,49,30.15,30.07,0,0,0,0.00
2013-3-15,77,58,46,54,46,40,85,66,41,30.12,30.02,0,0,0,0.00
2013-3-16,79,58,42,49,43,38,90,62,24,30.11,30.00,0,0,0,0.00
2013-3-17,74,55,44,46,41,38,80,61,27,30.14,30.02,0,0,0,0.00
2013-3-18,69,53,40,47,41,35,85,66,43,30.11,30.01,0,0,0,0.00
2013-3-19,60,51,43,47,42,36,87,70,52,30.13,30.04,0,0,0,0.08
2013-3-20,59,51,46,54,48,42,91,88,78,30.13,30.05,0,0,0,0.51
2013-3-21,70,52,39,47,41,35,90,68,41,30.13,30.00,0,0,0,0.00
2013-3-22,46,42,40,36,34,32,78,74,62,30.10,30.05,0,0,0,0.00
2013-3-23,74,54,42,43,38,34,80,56,29,30.13,30.03,0,0,0,0.00
2013-3-24,74,54,39,49,42,35,87,67,39,30.08,29.96,0,0,0,0.00
2013-3-25,61,48,39,46,41,35,92,78,55,30.02,29.93,0,0,0,0.00
2013-3-26,67,51,40,50,43,37,90,75,48,30.00,29.93,0,0,0,0.00
2013-3-27,61,52,43,51,46,39,88,82,66,30.01,29.93,0,0,0,0.00
2013-3-28,63,54,46,55,49,43,92,83,69,30.08,30.00,0,0,0,0.05
2013-3-29,80,59,45,58,50,42,92,75,38,30.09,30.01,0,0,0,0.01
2013-3-30,66,56,50,57,50,47,89,80,63,30.06,29.99,0,0,0,0.12
2013-3-31,61,55,50,56,51,47,91,89,75,30.06,29.99,0,0,0,0.67